aviador You're here:

DAUK Decoded Metar

TOUGGOURT in ALGERIA
Report Time2018-07-20 16:00:00
UTC Time2018-07-20 16:44:35
Flight Rules vfr VFR
Wind230° at 02 kt
W.Decomp.*RWY 19: 1.5 kt HW 1.3 kt RCW
W.Rank230° ranks 35
Current wind is below 230° avg. (9.3)
Visibility9999 m
Phenomena:N/A
Clouds:N/A
Expected CloudBase > 16,000 ft AGL from Temp-Dew spread
CeilingNone
Temp47°C (ISA +33)
Dew Point07°C (9% RH)
Heat Index43.8°C
AAT45.4°C
QNH1009 hPa
Density Alt4,157 ft
Elevation279 ft
Report Wrong Elevation
Raw Report
DAUK 201600Z 23002KT CAVOK 47/07 Q1009=

Extra information for DAUK:More info

Metar Taf Metar & Taf Last 4 Metars F.Rules Stats Wind Profile Meteogram Temp Stats Airport Information Weather charts Add Link Nearby VenuesMetar ALERT Operation Metar Decoded Social comments